TAF Text Data
IDs:
Format:
Raw Decoded Include METAR

Data at: 0719 UTC 23 Oct 2018

KISO 230520Z 2306/2406 00000KT P6SM SKC
  FM240500 29008KT P6SM SKC AMD LTD TO CLD VIS AND WIND